Terminal Aerodrome Forecast
Issued by NWS Melbourne, FL

Home | Current Version | Previous Version | Text Only | Print | Product List | Glossary On
Versions: 1 2 3 4 5 6 7 8 9 10 11 12 13 14 15
517
FTUS42 KMLB 181728
TAFDAB
TAF
KDAB 181728Z 1818/1918 25008KT P6SM SCT040
     FM182300 VRB03KT P6SM FEW045 BKN250
     FM190900 00000KT 4SM BR SCT250
     FM191400 32003KT P6SM SCT250=

USA.gov is the U.S. government's official web portal to all federal, state and local government web resources and services.